sensor_id;sensor_type;location;lat;lon;timestamp;P1;durP1;ratioP1;P2;durP2;ratioP2
23634;SDS011;11994;51.038;16.974;2022-07-29T00:00:56;6.03;;;3.40;;
23634;SDS011;11994;51.038;16.974;2022-07-29T00:03:22;9.13;;;3.33;;
23634;SDS011;11994;51.038;16.974;2022-07-29T00:05:48;7.47;;;3.22;;
23634;SDS011;11994;51.038;16.974;2022-07-29T00:08:14;12.05;;;3.52;;
23634;SDS011;11994;51.038;16.974;2022-07-29T00:10:40;10.45;;;3.55;;
23634;SDS011;11994;51.038;16.974;2022-07-29T00:13:07;9.00;;;3.35;;
23634;SDS011;11994;51.038;16.974;2022-07-29T00:15:33;9.28;;;3.37;;
23634;SDS011;11994;51.038;16.974;2022-07-29T00:17:59;10.15;;;3.37;;
23634;SDS011;11994;51.038;16.974;2022-07-29T00:20:25;12.98;;;3.50;;
23634;SDS011;11994;51.038;16.974;2022-07-29T00:22:52;13.93;;;3.70;;
23634;SDS011;11994;51.038;16.974;2022-07-29T00:25:18;11.30;;;3.20;;
23634;SDS011;11994;51.038;16.974;2022-07-29T00:27:44;8.83;;;3.42;;
23634;SDS011;11994;51.038;16.974;2022-07-29T00:30:13;12.13;;;3.35;;
23634;SDS011;11994;51.038;16.974;2022-07-29T00:32:39;9.95;;;3.02;;
23634;SDS011;11994;51.038;16.974;2022-07-29T00:35:06;8.75;;;3.20;;
23634;SDS011;11994;51.038;16.974;2022-07-29T00:37:52;8.18;;;3.27;;
23634;SDS011;11994;51.038;16.974;2022-07-29T00:40:18;9.68;;;3.30;;
23634;SDS011;11994;51.038;16.974;2022-07-29T00:42:45;7.92;;;3.35;;
23634;SDS011;11994;51.038;16.974;2022-07-29T00:45:16;9.18;;;3.37;;
23634;SDS011;11994;51.038;16.974;2022-07-29T00:47:43;8.00;;;3.30;;
23634;SDS011;11994;51.038;16.974;2022-07-29T00:50:09;8.00;;;3.60;;
23634;SDS011;11994;51.038;16.974;2022-07-29T00:52:38;6.95;;;3.30;;
23634;SDS011;11994;51.038;16.974;2022-07-29T00:55:07;8.95;;;3.50;;
23634;SDS011;11994;51.038;16.974;2022-07-29T00:57:37;7.72;;;3.27;;
23634;SDS011;11994;51.038;16.974;2022-07-29T01:00:04;8.63;;;3.08;;
23634;SDS011;11994;51.038;16.974;2022-07-29T01:02:33;9.05;;;3.22;;
23634;SDS011;11994;51.038;16.974;2022-07-29T01:05:00;8.50;;;3.22;;
23634;SDS011;11994;51.038;16.974;2022-07-29T01:07:27;9.08;;;3.15;;
23634;SDS011;11994;51.038;16.974;2022-07-29T01:09:55;6.78;;;3.10;;
23634;SDS011;11994;51.038;16.974;2022-07-29T01:12:27;12.00;;;3.45;;
23634;SDS011;11994;51.038;16.974;2022-07-29T01:14:57;7.45;;;3.20;;
23634;SDS011;11994;51.038;16.974;2022-07-29T01:32:04;7.72;;;3.10;;
23634;SDS011;11994;51.038;16.974;2022-07-29T01:34:41;8.47;;;3.10;;
23634;SDS011;11994;51.038;16.974;2022-07-29T01:37:20;7.78;;;3.37;;
23634;SDS011;11994;51.038;16.974;2022-07-29T01:40:13;8.88;;;3.17;;
23634;SDS011;11994;51.038;16.974;2022-07-29T01:42:48;8.68;;;3.50;;
23634;SDS011;11994;51.038;16.974;2022-07-29T01:45:26;4.75;;;2.92;;
23634;SDS011;11994;51.038;16.974;2022-07-29T01:48:14;12.00;;;3.25;;
23634;SDS011;11994;51.038;16.974;2022-07-29T01:50:58;6.12;;;3.22;;
23634;SDS011;11994;51.038;16.974;2022-07-29T01:54:01;5.47;;;3.20;;
23634;SDS011;11994;51.038;16.974;2022-07-29T01:56:35;6.30;;;3.42;;
23634;SDS011;11994;51.038;16.974;2022-07-29T01:59:04;7.75;;;3.15;;
23634;SDS011;11994;51.038;16.974;2022-07-29T02:01:33;9.57;;;3.60;;
23634;SDS011;11994;51.038;16.974;2022-07-29T02:04:02;10.15;;;3.72;;
23634;SDS011;11994;51.038;16.974;2022-07-29T02:06:31;16.65;;;4.65;;
23634;SDS011;11994;51.038;16.974;2022-07-29T02:09:00;36.38;;;5.85;;
23634;SDS011;11994;51.038;16.974;2022-07-29T02:11:28;14.78;;;3.70;;
23634;SDS011;11994;51.038;16.974;2022-07-29T02:13:56;14.35;;;3.83;;
23634;SDS011;11994;51.038;16.974;2022-07-29T02:16:25;8.33;;;3.52;;
23634;SDS011;11994;51.038;16.974;2022-07-29T02:18:54;10.88;;;3.67;;
23634;SDS011;11994;51.038;16.974;2022-07-29T02:21:23;8.43;;;3.60;;
23634;SDS011;11994;51.038;16.974;2022-07-29T02:23:52;7.90;;;3.33;;
23634;SDS011;11994;51.038;16.974;2022-07-29T02:26:20;9.45;;;3.15;;
23634;SDS011;11994;51.038;16.974;2022-07-29T02:28:49;5.45;;;3.15;;
23634;SDS011;11994;51.038;16.974;2022-07-29T02:31:18;6.30;;;2.83;;
23634;SDS011;11994;51.038;16.974;2022-07-29T02:33:48;6.15;;;3.33;;
23634;SDS011;11994;51.038;16.974;2022-07-29T02:36:17;12.20;;;3.35;;
23634;SDS011;11994;51.038;16.974;2022-07-29T02:38:46;8.43;;;3.25;;
23634;SDS011;11994;51.038;16.974;2022-07-29T02:41:24;6.35;;;3.17;;
23634;SDS011;11994;51.038;16.974;2022-07-29T02:44:05;7.85;;;3.70;;
23634;SDS011;11994;51.038;16.974;2022-07-29T02:46:34;9.38;;;3.47;;
23634;SDS011;11994;51.038;16.974;2022-07-29T02:51:53;9.13;;;3.12;;
23634;SDS011;11994;51.038;16.974;2022-07-29T02:54:25;5.65;;;3.30;;
23634;SDS011;11994;51.038;16.974;2022-07-29T02:56:58;5.83;;;3.08;;
23634;SDS011;11994;51.038;16.974;2022-07-29T02:59:28;8.73;;;3.12;;
23634;SDS011;11994;51.038;16.974;2022-07-29T03:01:58;7.10;;;3.10;;
23634;SDS011;11994;51.038;16.974;2022-07-29T03:04:25;7.67;;;3.35;;
23634;SDS011;11994;51.038;16.974;2022-07-29T03:06:53;5.65;;;3.20;;
23634;SDS011;11994;51.038;16.974;2022-07-29T03:09:20;7.35;;;2.98;;
23634;SDS011;11994;51.038;16.974;2022-07-29T03:11:48;8.33;;;3.40;;
23634;SDS011;11994;51.038;16.974;2022-07-29T03:14:15;9.70;;;3.12;;
23634;SDS011;11994;51.038;16.974;2022-07-29T03:16:44;8.65;;;3.40;;
23634;SDS011;11994;51.038;16.974;2022-07-29T03:19:10;6.12;;;3.15;;
23634;SDS011;11994;51.038;16.974;2022-07-29T03:21:36;8.63;;;3.47;;
23634;SDS011;11994;51.038;16.974;2022-07-29T03:24:02;9.80;;;3.30;;
23634;SDS011;11994;51.038;16.974;2022-07-29T03:26:28;5.65;;;2.85;;
23634;SDS011;11994;51.038;16.974;2022-07-29T03:28:54;6.10;;;2.85;;
23634;SDS011;11994;51.038;16.974;2022-07-29T03:31:20;8.80;;;3.12;;
23634;SDS011;11994;51.038;16.974;2022-07-29T03:33:46;6.90;;;3.30;;
23634;SDS011;11994;51.038;16.974;2022-07-29T03:36:12;5.85;;;3.40;;
23634;SDS011;11994;51.038;16.974;2022-07-29T03:38:38;9.25;;;3.50;;
23634;SDS011;11994;51.038;16.974;2022-07-29T03:41:09;7.95;;;3.27;;
23634;SDS011;11994;51.038;16.974;2022-07-29T03:43:38;7.12;;;3.05;;
23634;SDS011;11994;51.038;16.974;2022-07-29T03:46:06;8.05;;;3.10;;
23634;SDS011;11994;51.038;16.974;2022-07-29T03:48:34;9.23;;;3.60;;
23634;SDS011;11994;51.038;16.974;2022-07-29T03:51:05;6.60;;;3.20;;
23634;SDS011;11994;51.038;16.974;2022-07-29T03:53:31;7.12;;;2.87;;
23634;SDS011;11994;51.038;16.974;2022-07-29T03:55:59;10.65;;;3.17;;
23634;SDS011;11994;51.038;16.974;2022-07-29T03:58:27;7.22;;;3.33;;
23634;SDS011;11994;51.038;16.974;2022-07-29T04:00:55;6.60;;;3.02;;
23634;SDS011;11994;51.038;16.974;2022-07-29T04:03:22;10.78;;;3.42;;
23634;SDS011;11994;51.038;16.974;2022-07-29T04:06:06;18.87;;;4.37;;
23634;SDS011;11994;51.038;16.974;2022-07-29T04:08:34;6.87;;;3.17;;
23634;SDS011;11994;51.038;16.974;2022-07-29T04:11:00;11.20;;;3.40;;
23634;SDS011;11994;51.038;16.974;2022-07-29T04:13:27;9.95;;;3.40;;
23634;SDS011;11994;51.038;16.974;2022-07-29T04:15:53;7.15;;;3.10;;
23634;SDS011;11994;51.038;16.974;2022-07-29T04:18:19;7.70;;;2.95;;
23634;SDS011;11994;51.038;16.974;2022-07-29T04:20:45;6.28;;;3.22;;
23634;SDS011;11994;51.038;16.974;2022-07-29T04:23:11;7.97;;;3.10;;
23634;SDS011;11994;51.038;16.974;2022-07-29T04:25:37;7.90;;;3.05;;
23634;SDS011;11994;51.038;16.974;2022-07-29T04:28:06;7.37;;;3.27;;
23634;SDS011;11994;51.038;16.974;2022-07-29T04:30:34;4.78;;;2.72;;
23634;SDS011;11994;51.038;16.974;2022-07-29T04:33:02;10.48;;;3.22;;
23634;SDS011;11994;51.038;16.974;2022-07-29T04:35:31;9.85;;;2.92;;
23634;SDS011;11994;51.038;16.974;2022-07-29T04:38:02;10.20;;;3.92;;
23634;SDS011;11994;51.038;16.974;2022-07-29T04:40:30;11.12;;;3.33;;
23634;SDS011;11994;51.038;16.974;2022-07-29T04:42:58;10.05;;;3.10;;
23634;SDS011;11994;51.038;16.974;2022-07-29T04:45:26;10.50;;;3.10;;
23634;SDS011;11994;51.038;16.974;2022-07-29T04:47:53;9.88;;;2.85;;
23634;SDS011;11994;51.038;16.974;2022-07-29T04:50:20;15.03;;;3.30;;
23634;SDS011;11994;51.038;16.974;2022-07-29T04:52:46;8.90;;;3.27;;
23634;SDS011;11994;51.038;16.974;2022-07-29T04:55:12;9.43;;;3.12;;
23634;SDS011;11994;51.038;16.974;2022-07-29T04:57:37;10.78;;;3.25;;
23634;SDS011;11994;51.038;16.974;2022-07-29T05:00:04;6.45;;;3.00;;
23634;SDS011;11994;51.038;16.974;2022-07-29T05:02:32;11.08;;;3.20;;
23634;SDS011;11994;51.038;16.974;2022-07-29T05:04:58;13.50;;;2.87;;
23634;SDS011;11994;51.038;16.974;2022-07-29T05:07:24;7.58;;;3.00;;
23634;SDS011;11994;51.038;16.974;2022-07-29T05:09:49;10.58;;;2.87;;
23634;SDS011;11994;51.038;16.974;2022-07-29T05:12:15;12.23;;;3.30;;
23634;SDS011;11994;51.038;16.974;2022-07-29T05:14:41;6.72;;;3.05;;
23634;SDS011;11994;51.038;16.974;2022-07-29T05:17:07;8.70;;;2.98;;
23634;SDS011;11994;51.038;16.974;2022-07-29T05:19:33;5.42;;;2.90;;
23634;SDS011;11994;51.038;16.974;2022-07-29T05:21:58;7.17;;;2.75;;
23634;SDS011;11994;51.038;16.974;2022-07-29T05:24:25;7.28;;;3.02;;
23634;SDS011;11994;51.038;16.974;2022-07-29T05:26:51;8.78;;;2.62;;
23634;SDS011;11994;51.038;16.974;2022-07-29T05:29:17;5.45;;;2.85;;
23634;SDS011;11994;51.038;16.974;2022-07-29T05:31:42;8.55;;;3.22;;
23634;SDS011;11994;51.038;16.974;2022-07-29T05:34:08;7.83;;;2.58;;
23634;SDS011;11994;51.038;16.974;2022-07-29T05:36:34;10.55;;;2.47;;
23634;SDS011;11994;51.038;16.974;2022-07-29T05:39:00;8.23;;;2.75;;
23634;SDS011;11994;51.038;16.974;2022-07-29T05:41:26;8.95;;;2.85;;
23634;SDS011;11994;51.038;16.974;2022-07-29T05:43:52;8.03;;;3.00;;
23634;SDS011;11994;51.038;16.974;2022-07-29T05:46:17;5.90;;;2.77;;
23634;SDS011;11994;51.038;16.974;2022-07-29T05:48:44;7.58;;;2.83;;
23634;SDS011;11994;51.038;16.974;2022-07-29T05:51:10;8.68;;;2.83;;
23634;SDS011;11994;51.038;16.974;2022-07-29T05:53:36;5.53;;;2.60;;
23634;SDS011;11994;51.038;16.974;2022-07-29T05:56:03;5.97;;;2.75;;
23634;SDS011;11994;51.038;16.974;2022-07-29T05:58:30;7.28;;;2.60;;
23634;SDS011;11994;51.038;16.974;2022-07-29T06:00:56;6.03;;;2.85;;
23634;SDS011;11994;51.038;16.974;2022-07-29T06:03:25;7.87;;;2.50;;
23634;SDS011;11994;51.038;16.974;2022-07-29T06:05:51;6.53;;;2.67;;
23634;SDS011;11994;51.038;16.974;2022-07-29T06:08:18;6.62;;;2.35;;
23634;SDS011;11994;51.038;16.974;2022-07-29T06:10:44;8.45;;;2.27;;
23634;SDS011;11994;51.038;16.974;2022-07-29T06:13:10;4.72;;;2.20;;
23634;SDS011;11994;51.038;16.974;2022-07-29T06:15:37;5.22;;;2.22;;
23634;SDS011;11994;51.038;16.974;2022-07-29T06:18:03;6.85;;;2.05;;
23634;SDS011;11994;51.038;16.974;2022-07-29T06:20:31;5.30;;;2.27;;
23634;SDS011;11994;51.038;16.974;2022-07-29T06:22:57;5.83;;;1.98;;
23634;SDS011;11994;51.038;16.974;2022-07-29T06:25:24;3.90;;;2.15;;
23634;SDS011;11994;51.038;16.974;2022-07-29T06:27:51;6.67;;;2.00;;
23634;SDS011;11994;51.038;16.974;2022-07-29T06:30:18;11.68;;;2.12;;
23634;SDS011;11994;51.038;16.974;2022-07-29T06:32:44;6.87;;;2.10;;
23634;SDS011;11994;51.038;16.974;2022-07-29T06:35:09;4.95;;;2.10;;
23634;SDS011;11994;51.038;16.974;2022-07-29T06:37:35;5.15;;;1.87;;
23634;SDS011;11994;51.038;16.974;2022-07-29T06:40:01;7.30;;;2.37;;
23634;SDS011;11994;51.038;16.974;2022-07-29T06:42:47;6.55;;;1.98;;
23634;SDS011;11994;51.038;16.974;2022-07-29T06:45:14;4.42;;;2.10;;
23634;SDS011;11994;51.038;16.974;2022-07-29T06:47:41;6.55;;;2.30;;
23634;SDS011;11994;51.038;16.974;2022-07-29T06:50:07;11.12;;;2.35;;
23634;SDS011;11994;51.038;16.974;2022-07-29T06:52:35;5.05;;;2.00;;
23634;SDS011;11994;51.038;16.974;2022-07-29T06:55:02;7.80;;;2.12;;
23634;SDS011;11994;51.038;16.974;2022-07-29T06:57:28;7.67;;;2.35;;
23634;SDS011;11994;51.038;16.974;2022-07-29T06:59:55;7.37;;;2.17;;
23634;SDS011;11994;51.038;16.974;2022-07-29T07:02:22;9.95;;;1.80;;
23634;SDS011;11994;51.038;16.974;2022-07-29T07:04:48;7.20;;;2.10;;
23634;SDS011;11994;51.038;16.974;2022-07-29T07:07:14;7.55;;;2.20;;
23634;SDS011;11994;51.038;16.974;2022-07-29T07:09:39;7.47;;;1.87;;
23634;SDS011;11994;51.038;16.974;2022-07-29T07:12:05;6.15;;;1.87;;
23634;SDS011;11994;51.038;16.974;2022-07-29T07:14:32;8.75;;;2.35;;
23634;SDS011;11994;51.038;16.974;2022-07-29T07:16:58;6.37;;;1.95;;
23634;SDS011;11994;51.038;16.974;2022-07-29T07:19:25;10.48;;;2.25;;
23634;SDS011;11994;51.038;16.974;2022-07-29T07:21:52;8.05;;;2.25;;
23634;SDS011;11994;51.038;16.974;2022-07-29T07:24:18;8.75;;;2.08;;
23634;SDS011;11994;51.038;16.974;2022-07-29T07:26:44;8.05;;;2.05;;
23634;SDS011;11994;51.038;16.974;2022-07-29T07:29:10;8.70;;;1.90;;
23634;SDS011;11994;51.038;16.974;2022-07-29T07:31:37;5.15;;;2.20;;
23634;SDS011;11994;51.038;16.974;2022-07-29T07:34:03;5.80;;;1.98;;
23634;SDS011;11994;51.038;16.974;2022-07-29T07:36:29;8.18;;;1.85;;
23634;SDS011;11994;51.038;16.974;2022-07-29T07:38:55;7.37;;;2.15;;
23634;SDS011;11994;51.038;16.974;2022-07-29T07:41:21;3.85;;;1.67;;
23634;SDS011;11994;51.038;16.974;2022-07-29T07:43:47;9.80;;;1.85;;
23634;SDS011;11994;51.038;16.974;2022-07-29T07:46:14;8.00;;;2.05;;
23634;SDS011;11994;51.038;16.974;2022-07-29T07:48:40;7.83;;;2.20;;
23634;SDS011;11994;51.038;16.974;2022-07-29T07:51:06;5.78;;;1.80;;
23634;SDS011;11994;51.038;16.974;2022-07-29T07:53:32;7.17;;;1.80;;
23634;SDS011;11994;51.038;16.974;2022-07-29T07:55:59;8.88;;;1.82;;
23634;SDS011;11994;51.038;16.974;2022-07-29T07:58:25;7.58;;;1.80;;
23634;SDS011;11994;51.038;16.974;2022-07-29T08:00:51;10.32;;;2.00;;
23634;SDS011;11994;51.038;16.974;2022-07-29T08:03:17;3.47;;;1.30;;
23634;SDS011;11994;51.038;16.974;2022-07-29T08:05:43;6.95;;;1.70;;
23634;SDS011;11994;51.038;16.974;2022-07-29T08:08:09;4.47;;;1.85;;
23634;SDS011;11994;51.038;16.974;2022-07-29T08:10:35;4.33;;;1.60;;
23634;SDS011;11994;51.038;16.974;2022-07-29T08:13:21;6.78;;;1.77;;
23634;SDS011;11994;51.038;16.974;2022-07-29T08:15:50;5.12;;;1.70;;
23634;SDS011;11994;51.038;16.974;2022-07-29T08:18:29;6.45;;;1.90;;
23634;SDS011;11994;51.038;16.974;2022-07-29T08:20:57;7.62;;;1.67;;
23634;SDS011;11994;51.038;16.974;2022-07-29T08:23:23;3.62;;;1.70;;
23634;SDS011;11994;51.038;16.974;2022-07-29T08:25:51;6.08;;;1.90;;
23634;SDS011;11994;51.038;16.974;2022-07-29T08:28:18;4.75;;;1.80;;
23634;SDS011;11994;51.038;16.974;2022-07-29T08:30:44;6.87;;;1.80;;
23634;SDS011;11994;51.038;16.974;2022-07-29T08:33:10;7.00;;;1.80;;
23634;SDS011;11994;51.038;16.974;2022-07-29T08:35:36;5.70;;;1.50;;
23634;SDS011;11994;51.038;16.974;2022-07-29T08:38:04;4.05;;;1.50;;
23634;SDS011;11994;51.038;16.974;2022-07-29T08:40:30;3.65;;;1.60;;
23634;SDS011;11994;51.038;16.974;2022-07-29T08:42:56;5.53;;;1.55;;
23634;SDS011;11994;51.038;16.974;2022-07-29T08:45:22;5.70;;;1.82;;
23634;SDS011;11994;51.038;16.974;2022-07-29T08:47:48;7.55;;;1.90;;
23634;SDS011;11994;51.038;16.974;2022-07-29T08:50:14;6.08;;;1.82;;
23634;SDS011;11994;51.038;16.974;2022-07-29T08:52:40;6.53;;;1.70;;
23634;SDS011;11994;51.038;16.974;2022-07-29T08:55:08;5.92;;;1.87;;
23634;SDS011;11994;51.038;16.974;2022-07-29T08:57:35;3.75;;;1.67;;
23634;SDS011;11994;51.038;16.974;2022-07-29T09:00:04;4.75;;;1.75;;
23634;SDS011;11994;51.038;16.974;2022-07-29T09:02:35;6.97;;;1.85;;
23634;SDS011;11994;51.038;16.974;2022-07-29T09:05:07;3.52;;;1.60;;
23634;SDS011;11994;51.038;16.974;2022-07-29T09:07:33;6.37;;;1.90;;
23634;SDS011;11994;51.038;16.974;2022-07-29T09:10:01;8.68;;;1.98;;
23634;SDS011;11994;51.038;16.974;2022-07-29T09:12:29;6.30;;;1.80;;
23634;SDS011;11994;51.038;16.974;2022-07-29T09:14:56;4.35;;;1.80;;
23634;SDS011;11994;51.038;16.974;2022-07-29T09:20:09;7.37;;;1.60;;
23634;SDS011;11994;51.038;16.974;2022-07-29T09:22:38;6.42;;;1.90;;
23634;SDS011;11994;51.038;16.974;2022-07-29T09:25:05;7.53;;;1.90;;
23634;SDS011;11994;51.038;16.974;2022-07-29T09:27:32;7.75;;;2.12;;
23634;SDS011;11994;51.038;16.974;2022-07-29T09:29:59;8.20;;;1.67;;
23634;SDS011;11994;51.038;16.974;2022-07-29T09:32:30;5.15;;;2.00;;
23634;SDS011;11994;51.038;16.974;2022-07-29T09:35:19;9.95;;;2.70;;
23634;SDS011;11994;51.038;16.974;2022-07-29T09:37:45;4.80;;;1.75;;
23634;SDS011;11994;51.038;16.974;2022-07-29T09:40:16;3.60;;;1.60;;
23634;SDS011;11994;51.038;16.974;2022-07-29T09:42:45;5.03;;;1.82;;
23634;SDS011;11994;51.038;16.974;2022-07-29T09:45:13;6.78;;;1.72;;
23634;SDS011;11994;51.038;16.974;2022-07-29T09:48:12;6.70;;;1.70;;
23634;SDS011;11994;51.038;16.974;2022-07-29T09:50:48;8.85;;;2.00;;
23634;SDS011;11994;51.038;16.974;2022-07-29T09:53:31;6.60;;;1.90;;
23634;SDS011;11994;51.038;16.974;2022-07-29T09:56:03;7.10;;;1.80;;
23634;SDS011;11994;51.038;16.974;2022-07-29T09:58:30;5.12;;;2.05;;
23634;SDS011;11994;51.038;16.974;2022-07-29T10:00:58;6.20;;;2.30;;
23634;SDS011;11994;51.038;16.974;2022-07-29T10:03:24;5.58;;;2.00;;
23634;SDS011;11994;51.038;16.974;2022-07-29T10:06:04;4.87;;;1.90;;
23634;SDS011;11994;51.038;16.974;2022-07-29T10:08:35;6.00;;;1.98;;
23634;SDS011;11994;51.038;16.974;2022-07-29T10:11:09;4.87;;;2.20;;
23634;SDS011;11994;51.038;16.974;2022-07-29T10:13:38;4.30;;;2.00;;
23634;SDS011;11994;51.038;16.974;2022-07-29T10:16:06;5.12;;;2.00;;
23634;SDS011;11994;51.038;16.974;2022-07-29T10:18:33;6.22;;;2.05;;
23634;SDS011;11994;51.038;16.974;2022-07-29T10:21:00;5.75;;;2.10;;
23634;SDS011;11994;51.038;16.974;2022-07-29T10:23:31;4.62;;;2.00;;
23634;SDS011;11994;51.038;16.974;2022-07-29T10:25:55;5.00;;;2.10;;
23634;SDS011;11994;51.038;16.974;2022-07-29T10:28:22;3.25;;;1.70;;
23634;SDS011;11994;51.038;16.974;2022-07-29T10:30:50;4.75;;;1.98;;
23634;SDS011;11994;51.038;16.974;2022-07-29T10:42:36;4.70;;;1.90;;
23634;SDS011;11994;51.038;16.974;2022-07-29T10:45:06;5.85;;;2.50;;
23634;SDS011;11994;51.038;16.974;2022-07-29T10:47:32;4.75;;;1.90;;
23634;SDS011;11994;51.038;16.974;2022-07-29T10:50:03;5.15;;;1.90;;
23634;SDS011;11994;51.038;16.974;2022-07-29T10:55:31;7.70;;;2.15;;
23634;SDS011;11994;51.038;16.974;2022-07-29T10:58:20;6.87;;;2.00;;
23634;SDS011;11994;51.038;16.974;2022-07-29T11:00:43;5.62;;;2.10;;
23634;SDS011;11994;51.038;16.974;2022-07-29T11:06:12;3.58;;;1.70;;
23634;SDS011;11994;51.038;16.974;2022-07-29T11:08:38;6.12;;;2.27;;
23634;SDS011;11994;51.038;16.974;2022-07-29T11:13:54;7.30;;;2.35;;
23634;SDS011;11994;51.038;16.974;2022-07-29T11:16:21;6.70;;;2.02;;
23634;SDS011;11994;51.038;16.974;2022-07-29T11:21:41;6.65;;;2.10;;
23634;SDS011;11994;51.038;16.974;2022-07-29T11:24:12;8.18;;;2.50;;
23634;SDS011;11994;51.038;16.974;2022-07-29T11:29:40;9.05;;;2.10;;
23634;SDS011;11994;51.038;16.974;2022-07-29T11:32:23;8.73;;;2.27;;
23634;SDS011;11994;51.038;16.974;2022-07-29T11:37:42;4.62;;;2.00;;
23634;SDS011;11994;51.038;16.974;2022-07-29T11:40:10;7.95;;;2.10;;
23634;SDS011;11994;51.038;16.974;2022-07-29T11:42:40;5.40;;;2.00;;
23634;SDS011;11994;51.038;16.974;2022-07-29T11:45:10;4.22;;;1.70;;
23634;SDS011;11994;51.038;16.974;2022-07-29T11:47:40;7.40;;;1.85;;
23634;SDS011;11994;51.038;16.974;2022-07-29T11:53:02;6.83;;;1.92;;
23634;SDS011;11994;51.038;16.974;2022-07-29T11:55:37;3.47;;;1.75;;
23634;SDS011;11994;51.038;16.974;2022-07-29T11:58:05;8.13;;;1.75;;
23634;SDS011;11994;51.038;16.974;2022-07-29T12:00:33;8.28;;;2.00;;
23634;SDS011;11994;51.038;16.974;2022-07-29T12:03:06;4.42;;;1.95;;
23634;SDS011;11994;51.038;16.974;2022-07-29T12:05:35;6.78;;;1.77;;
23634;SDS011;11994;51.038;16.974;2022-07-29T12:08:15;6.20;;;1.80;;
23634;SDS011;11994;51.038;16.974;2022-07-29T12:10:47;7.22;;;1.72;;
23634;SDS011;11994;51.038;16.974;2022-07-29T12:13:16;4.90;;;2.05;;
23634;SDS011;11994;51.038;16.974;2022-07-29T12:15:51;7.95;;;2.17;;
23634;SDS011;11994;51.038;16.974;2022-07-29T12:18:22;4.97;;;1.90;;
23634;SDS011;11994;51.038;16.974;2022-07-29T12:20:48;4.62;;;1.95;;
23634;SDS011;11994;51.038;16.974;2022-07-29T12:23:23;6.42;;;1.98;;
23634;SDS011;11994;51.038;16.974;2022-07-29T12:25:49;5.83;;;1.90;;
23634;SDS011;11994;51.038;16.974;2022-07-29T12:28:15;7.75;;;2.15;;
23634;SDS011;11994;51.038;16.974;2022-07-29T12:30:44;7.05;;;2.08;;
23634;SDS011;11994;51.038;16.974;2022-07-29T12:33:24;7.65;;;2.20;;
23634;SDS011;11994;51.038;16.974;2022-07-29T12:35:57;6.43;;;1.80;;
23634;SDS011;11994;51.038;16.974;2022-07-29T12:38:26;6.70;;;2.08;;
23634;SDS011;11994;51.038;16.974;2022-07-29T12:40:52;5.42;;;2.22;;
23634;SDS011;11994;51.038;16.974;2022-07-29T12:43:23;3.67;;;1.90;;
23634;SDS011;11994;51.038;16.974;2022-07-29T12:45:49;5.30;;;2.27;;
23634;SDS011;11994;51.038;16.974;2022-07-29T12:51:02;7.50;;;2.00;;
23634;SDS011;11994;51.038;16.974;2022-07-29T12:53:31;5.97;;;1.92;;
23634;SDS011;11994;51.038;16.974;2022-07-29T12:55:58;7.67;;;1.90;;
23634;SDS011;11994;51.038;16.974;2022-07-29T13:01:10;7.83;;;2.05;;
23634;SDS011;11994;51.038;16.974;2022-07-29T13:14:10;5.22;;;2.08;;
23634;SDS011;11994;51.038;16.974;2022-07-29T13:22:20;5.40;;;2.10;;
23634;SDS011;11994;51.038;16.974;2022-07-29T13:24:56;6.55;;;2.00;;
23634;SDS011;11994;51.038;16.974;2022-07-29T13:27:27;5.62;;;2.37;;
23634;SDS011;11994;51.038;16.974;2022-07-29T13:29:57;6.30;;;2.33;;
23634;SDS011;11994;51.038;16.974;2022-07-29T13:32:26;7.35;;;2.05;;
23634;SDS011;11994;51.038;16.974;2022-07-29T13:34:58;5.62;;;1.92;;
23634;SDS011;11994;51.038;16.974;2022-07-29T13:37:27;6.95;;;2.00;;
23634;SDS011;11994;51.038;16.974;2022-07-29T13:39:54;5.40;;;2.10;;
23634;SDS011;11994;51.038;16.974;2022-07-29T13:42:22;6.80;;;2.20;;
23634;SDS011;11994;51.038;16.974;2022-07-29T13:44:48;5.25;;;2.30;;
23634;SDS011;11994;51.038;16.974;2022-07-29T13:47:16;10.58;;;2.60;;
23634;SDS011;11994;51.038;16.974;2022-07-29T13:49:44;5.28;;;1.95;;
23634;SDS011;11994;51.038;16.974;2022-07-29T13:52:10;6.42;;;2.50;;
23634;SDS011;11994;51.038;16.974;2022-07-29T13:54:35;6.78;;;2.27;;
23634;SDS011;11994;51.038;16.974;2022-07-29T13:57:03;9.53;;;2.55;;
23634;SDS011;11994;51.038;16.974;2022-07-29T13:59:30;8.08;;;2.10;;
23634;SDS011;11994;51.038;16.974;2022-07-29T14:01:56;11.30;;;2.10;;
23634;SDS011;11994;51.038;16.974;2022-07-29T14:04:22;11.08;;;2.22;;
23634;SDS011;11994;51.038;16.974;2022-07-29T14:06:48;14.15;;;2.50;;
23634;SDS011;11994;51.038;16.974;2022-07-29T14:09:15;8.93;;;2.30;;
23634;SDS011;11994;51.038;16.974;2022-07-29T14:11:41;5.70;;;2.37;;
23634;SDS011;11994;51.038;16.974;2022-07-29T14:14:07;4.72;;;2.10;;
23634;SDS011;11994;51.038;16.974;2022-07-29T14:16:33;5.30;;;2.15;;
23634;SDS011;11994;51.038;16.974;2022-07-29T14:18:59;5.87;;;2.02;;
23634;SDS011;11994;51.038;16.974;2022-07-29T14:21:25;6.42;;;2.30;;
23634;SDS011;11994;51.038;16.974;2022-07-29T14:23:51;7.55;;;2.30;;
23634;SDS011;11994;51.038;16.974;2022-07-29T14:26:19;9.60;;;2.50;;
23634;SDS011;11994;51.038;16.974;2022-07-29T14:28:47;6.15;;;1.90;;
23634;SDS011;11994;51.038;16.974;2022-07-29T14:31:14;5.45;;;1.80;;
23634;SDS011;11994;51.038;16.974;2022-07-29T14:33:40;4.67;;;2.30;;
23634;SDS011;11994;51.038;16.974;2022-07-29T14:36:07;6.03;;;2.37;;
23634;SDS011;11994;51.038;16.974;2022-07-29T14:38:34;6.87;;;2.00;;
23634;SDS011;11994;51.038;16.974;2022-07-29T14:41:02;4.53;;;1.90;;
23634;SDS011;11994;51.038;16.974;2022-07-29T14:43:28;5.47;;;2.10;;
23634;SDS011;11994;51.038;16.974;2022-07-29T14:45:54;4.45;;;2.08;;
23634;SDS011;11994;51.038;16.974;2022-07-29T14:48:20;4.08;;;1.85;;
23634;SDS011;11994;51.038;16.974;2022-07-29T14:50:46;6.15;;;2.12;;
23634;SDS011;11994;51.038;16.974;2022-07-29T14:53:12;5.20;;;2.10;;
23634;SDS011;11994;51.038;16.974;2022-07-29T14:55:38;5.03;;;1.90;;
23634;SDS011;11994;51.038;16.974;2022-07-29T14:58:05;6.65;;;2.08;;
23634;SDS011;11994;51.038;16.974;2022-07-29T15:00:31;7.78;;;2.20;;
23634;SDS011;11994;51.038;16.974;2022-07-29T15:02:59;10.98;;;2.30;;
23634;SDS011;11994;51.038;16.974;2022-07-29T15:05:26;8.88;;;2.20;;
23634;SDS011;11994;51.038;16.974;2022-07-29T15:07:52;5.47;;;2.17;;
23634;SDS011;11994;51.038;16.974;2022-07-29T15:10:18;7.45;;;2.30;;
23634;SDS011;11994;51.038;16.974;2022-07-29T15:12:45;7.15;;;2.60;;
23634;SDS011;11994;51.038;16.974;2022-07-29T15:15:10;5.47;;;2.02;;
23634;SDS011;11994;51.038;16.974;2022-07-29T15:17:36;6.47;;;2.05;;
23634;SDS011;11994;51.038;16.974;2022-07-29T15:20:03;9.58;;;2.50;;
23634;SDS011;11994;51.038;16.974;2022-07-29T15:22:30;9.95;;;2.65;;
23634;SDS011;11994;51.038;16.974;2022-07-29T15:24:56;8.40;;;2.45;;
23634;SDS011;11994;51.038;16.974;2022-07-29T15:27:22;7.87;;;2.47;;
23634;SDS011;11994;51.038;16.974;2022-07-29T15:29:48;10.15;;;2.00;;
23634;SDS011;11994;51.038;16.974;2022-07-29T15:32:13;9.48;;;2.42;;
23634;SDS011;11994;51.038;16.974;2022-07-29T15:34:40;6.28;;;2.20;;
23634;SDS011;11994;51.038;16.974;2022-07-29T15:37:06;5.62;;;1.87;;
23634;SDS011;11994;51.038;16.974;2022-07-29T15:39:31;8.65;;;2.35;;
23634;SDS011;11994;51.038;16.974;2022-07-29T15:41:58;4.35;;;2.25;;
23634;SDS011;11994;51.038;16.974;2022-07-29T15:44:27;9.90;;;2.47;;
23634;SDS011;11994;51.038;16.974;2022-07-29T15:46:53;10.08;;;2.50;;
23634;SDS011;11994;51.038;16.974;2022-07-29T15:49:38;11.08;;;2.27;;
23634;SDS011;11994;51.038;16.974;2022-07-29T15:52:06;7.12;;;2.00;;